sensor_id;sensor_type;location;lat;lon;timestamp;pressure;altitude;pressure_sealevel;temperature;humidity
52105;BME280;38103;42.776;23.112;2023-04-08T00:01:43;94019.88;;;2.29;90.86
52105;BME280;38103;42.776;23.112;2023-04-08T00:04:08;94012.00;;;1.99;93.00
52105;BME280;38103;42.776;23.112;2023-04-08T00:06:34;93988.13;;;1.80;93.73
52105;BME280;38103;42.776;23.112;2023-04-08T00:09:00;94007.06;;;2.04;93.99
52105;BME280;38103;42.776;23.112;2023-04-08T00:11:26;94011.59;;;2.10;93.28
52105;BME280;38103;42.776;23.112;2023-04-08T00:13:51;94014.44;;;2.31;92.34
52105;BME280;38103;42.776;23.112;2023-04-08T00:16:17;94016.41;;;2.44;93.13
52105;BME280;38103;42.776;23.112;2023-04-08T00:18:42;94009.28;;;2.53;92.16
52105;BME280;38103;42.776;23.112;2023-04-08T00:21:08;94014.53;;;2.38;91.12
52105;BME280;38103;42.776;23.112;2023-04-08T00:23:34;94011.94;;;2.07;91.43
52105;BME280;38103;42.776;23.112;2023-04-08T00:25:59;94017.69;;;2.18;91.79
52105;BME280;38103;42.776;23.112;2023-04-08T00:28:25;94016.50;;;2.36;92.02
52105;BME280;38103;42.776;23.112;2023-04-08T00:30:52;94006.97;;;2.43;92.08
52105;BME280;38103;42.776;23.112;2023-04-08T00:33:17;94006.81;;;2.44;91.33
52105;BME280;38103;42.776;23.112;2023-04-08T00:35:43;93881.50;;;1.55;91.26
52105;BME280;38103;42.776;23.112;2023-04-08T00:38:09;93981.88;;;2.11;91.62
52105;BME280;38103;42.776;23.112;2023-04-08T00:40:34;94011.59;;;2.10;92.65
52105;BME280;38103;42.776;23.112;2023-04-08T00:43:00;93988.19;;;2.02;93.18
52105;BME280;38103;42.776;23.112;2023-04-08T00:45:26;94011.03;;;2.30;93.47
52105;BME280;38103;42.776;23.112;2023-04-08T00:47:51;94006.44;;;2.32;93.00
52105;BME280;38103;42.776;23.112;2023-04-08T00:50:17;94005.91;;;2.07;93.46
52105;BME280;38103;42.776;23.112;2023-04-08T00:52:43;93981.34;;;1.71;94.66
52105;BME280;38103;42.776;23.112;2023-04-08T00:55:08;94001.78;;;1.82;95.23
52105;BME280;38103;42.776;23.112;2023-04-08T00:57:34;93923.28;;;1.47;94.26
52105;BME280;38103;42.776;23.112;2023-04-08T01:00:01;93946.47;;;1.72;94.32
52105;BME280;38103;42.776;23.112;2023-04-08T01:02:38;93857.34;;;1.16;94.54
52105;BME280;38103;42.776;23.112;2023-04-08T01:05:22;93883.56;;;1.44;94.37
52105;BME280;38103;42.776;23.112;2023-04-08T01:07:52;94006.53;;;1.94;94.75
52105;BME280;38103;42.776;23.112;2023-04-08T01:10:21;93896.28;;;1.09;95.99
52105;BME280;38103;42.776;23.112;2023-04-08T01:12:51;93841.63;;;0.70;96.63
52105;BME280;38103;42.776;23.112;2023-04-08T01:15:18;93841.06;;;0.60;98.37
52105;BME280;38103;42.776;23.112;2023-04-08T01:17:46;93861.41;;;0.80;98.57
52105;BME280;38103;42.776;23.112;2023-04-08T01:20:13;93849.03;;;0.82;97.82
52105;BME280;38103;42.776;23.112;2023-04-08T01:22:45;93860.91;;;0.99;97.15
52105;BME280;38103;42.776;23.112;2023-04-08T01:25:23;94028.13;;;2.18;97.87
52105;BME280;38103;42.776;23.112;2023-04-08T01:27:52;93860.03;;;1.22;97.00
52105;BME280;38103;42.776;23.112;2023-04-08T01:30:23;93863.88;;;1.27;96.69
52105;BME280;38103;42.776;23.112;2023-04-08T01:32:52;93971.66;;;1.95;96.35
52105;BME280;38103;42.776;23.112;2023-04-08T01:35:18;93863.72;;;1.13;96.70
52105;BME280;38103;42.776;23.112;2023-04-08T01:37:45;93868.91;;;0.98;97.20
52105;BME280;38103;42.776;23.112;2023-04-08T01:40:13;93971.09;;;1.54;97.43
52105;BME280;38103;42.776;23.112;2023-04-08T01:42:41;93949.03;;;1.26;98.25
52105;BME280;38103;42.776;23.112;2023-04-08T01:45:08;93973.22;;;1.35;99.16
52105;BME280;38103;42.776;23.112;2023-04-08T01:47:34;93990.09;;;1.39;99.43
52105;BME280;38103;42.776;23.112;2023-04-08T01:50:02;93973.28;;;1.27;99.48
52105;BME280;38103;42.776;23.112;2023-04-08T01:52:29;94001.44;;;1.47;99.12
52105;BME280;38103;42.776;23.112;2023-04-08T01:54:55;93869.03;;;0.58;98.55
52105;BME280;38103;42.776;23.112;2023-04-08T01:57:23;93887.78;;;0.53;99.24
52105;BME280;38103;42.776;23.112;2023-04-08T01:59:51;93976.38;;;1.07;100.00
52105;BME280;38103;42.776;23.112;2023-04-08T02:02:19;93877.25;;;0.46;100.00
52105;BME280;38103;42.776;23.112;2023-04-08T02:04:46;94036.53;;;1.59;100.00
52105;BME280;38103;42.776;23.112;2023-04-08T02:07:11;94044.97;;;1.61;100.00
52105;BME280;38103;42.776;23.112;2023-04-08T02:09:38;94056.31;;;1.69;99.64
52105;BME280;38103;42.776;23.112;2023-04-08T02:12:03;94052.63;;;1.78;99.02
52105;BME280;38103;42.776;23.112;2023-04-08T02:14:29;94050.97;;;1.85;98.42
52105;BME280;38103;42.776;23.112;2023-04-08T02:17:03;93904.19;;;1.00;97.59
52105;BME280;38103;42.776;23.112;2023-04-08T02:19:50;94054.41;;;2.01;97.78
52105;BME280;38103;42.776;23.112;2023-04-08T02:25:13;93895.47;;;1.08;98.07
52105;BME280;38103;42.776;23.112;2023-04-08T02:27:41;93904.94;;;1.25;97.46
52105;BME280;38103;42.776;23.112;2023-04-08T02:30:09;93995.47;;;1.92;97.00
52105;BME280;38103;42.776;23.112;2023-04-08T02:32:36;93997.66;;;2.03;96.81
52105;BME280;38103;42.776;23.112;2023-04-08T02:35:03;93968.44;;;1.93;96.19
52105;BME280;38103;42.776;23.112;2023-04-08T02:37:32;94066.91;;;2.51;95.58
52105;BME280;38103;42.776;23.112;2023-04-08T02:39:59;93888.41;;;1.48;96.07
52105;BME280;38103;42.776;23.112;2023-04-08T02:42:24;93880.59;;;1.48;96.24
52105;BME280;38103;42.776;23.112;2023-04-08T02:44:50;93883.47;;;1.53;95.80
52105;BME280;38103;42.776;23.112;2023-04-08T02:47:16;93892.56;;;1.57;95.50
52105;BME280;38103;42.776;23.112;2023-04-08T02:49:41;93893.91;;;1.38;94.64
52105;BME280;38103;42.776;23.112;2023-04-08T02:52:07;93882.09;;;1.27;94.55
52105;BME280;38103;42.776;23.112;2023-04-08T02:54:33;93885.88;;;1.39;94.76
52105;BME280;38103;42.776;23.112;2023-04-08T02:56:58;93894.09;;;1.51;95.48
52105;BME280;38103;42.776;23.112;2023-04-08T02:59:24;93889.16;;;1.41;95.85
52105;BME280;38103;42.776;23.112;2023-04-08T03:04:59;94036.41;;;2.37;96.00
52105;BME280;38103;42.776;23.112;2023-04-08T03:07:25;93887.97;;;1.29;95.95
52105;BME280;38103;42.776;23.112;2023-04-08T03:09:50;93881.22;;;1.19;95.96
52105;BME280;38103;42.776;23.112;2023-04-08T03:12:16;93865.94;;;1.16;96.57
52105;BME280;38103;42.776;23.112;2023-04-08T03:14:42;94048.28;;;2.24;96.46
52105;BME280;38103;42.776;23.112;2023-04-08T03:19:33;94040.63;;;2.22;95.96
52105;BME280;38103;42.776;23.112;2023-04-08T03:21:58;94042.06;;;2.25;96.40
52105;BME280;38103;42.776;23.112;2023-04-08T03:24:24;94038.91;;;2.30;96.10
52105;BME280;38103;42.776;23.112;2023-04-08T03:26:49;94043.78;;;2.33;95.98
52105;BME280;38103;42.776;23.112;2023-04-08T03:29:15;94006.19;;;1.97;96.56
52105;BME280;38103;42.776;23.112;2023-04-08T03:31:41;94036.84;;;2.10;97.00
52105;BME280;38103;42.776;23.112;2023-04-08T03:34:06;94038.56;;;2.18;96.15
52105;BME280;38103;42.776;23.112;2023-04-08T03:36:32;94043.59;;;2.34;97.41
52105;BME280;38103;42.776;23.112;2023-04-08T03:38:58;94049.88;;;2.25;96.05
52105;BME280;38103;42.776;23.112;2023-04-08T03:41:23;94042.88;;;2.10;96.88
52105;BME280;38103;42.776;23.112;2023-04-08T03:43:49;94047.97;;;2.04;98.69
52105;BME280;38103;42.776;23.112;2023-04-08T03:46:14;94046.13;;;2.12;98.63
52105;BME280;38103;42.776;23.112;2023-04-08T03:48:40;94049.00;;;2.18;98.86
52105;BME280;38103;42.776;23.112;2023-04-08T03:51:06;94045.03;;;2.22;99.10
52105;BME280;38103;42.776;23.112;2023-04-08T03:53:31;94043.78;;;2.18;98.88
52105;BME280;38103;42.776;23.112;2023-04-08T03:55:58;93885.50;;;1.12;98.72
52105;BME280;38103;42.776;23.112;2023-04-08T03:58:24;93892.44;;;1.20;98.87
52105;BME280;38103;42.776;23.112;2023-04-08T04:00:49;93892.91;;;1.24;98.65
52105;BME280;38103;42.776;23.112;2023-04-08T04:03:15;93898.53;;;1.12;99.22
52105;BME280;38103;42.776;23.112;2023-04-08T04:05:41;93900.78;;;1.15;99.92
52105;BME280;38103;42.776;23.112;2023-04-08T04:08:06;94050.97;;;2.16;100.00
52105;BME280;38103;42.776;23.112;2023-04-08T04:10:33;93991.22;;;1.60;100.00
52105;BME280;38103;42.776;23.112;2023-04-08T04:12:59;94052.28;;;1.96;100.00
52105;BME280;38103;42.776;23.112;2023-04-08T04:15:25;94056.72;;;1.96;100.00
52105;BME280;38103;42.776;23.112;2023-04-08T04:17:50;94070.81;;;2.01;100.00
52105;BME280;38103;42.776;23.112;2023-04-08T04:20:17;94076.66;;;1.88;100.00
52105;BME280;38103;42.776;23.112;2023-04-08T04:22:42;93901.28;;;0.95;100.00
52105;BME280;38103;42.776;23.112;2023-04-08T04:25:08;93894.16;;;0.89;100.00
52105;BME280;38103;42.776;23.112;2023-04-08T04:27:34;93897.84;;;0.80;100.00
52105;BME280;38103;42.776;23.112;2023-04-08T04:30:01;94051.31;;;1.82;100.00
52105;BME280;38103;42.776;23.112;2023-04-08T04:32:27;93981.66;;;1.37;100.00
52105;BME280;38103;42.776;23.112;2023-04-08T04:34:53;94060.78;;;1.98;100.00
52105;BME280;38103;42.776;23.112;2023-04-08T04:37:18;94072.19;;;2.12;100.00
52105;BME280;38103;42.776;23.112;2023-04-08T04:39:44;94062.31;;;2.23;100.00
52105;BME280;38103;42.776;23.112;2023-04-08T04:42:10;94038.91;;;2.15;100.00
52105;BME280;38103;42.776;23.112;2023-04-08T04:44:36;94061.22;;;2.32;100.00
52105;BME280;38103;42.776;23.112;2023-04-08T04:47:01;94050.16;;;2.30;100.00
52105;BME280;38103;42.776;23.112;2023-04-08T04:49:27;94060.16;;;2.42;100.00
52105;BME280;38103;42.776;23.112;2023-04-08T04:51:53;94067.78;;;2.43;100.00
52105;BME280;38103;42.776;23.112;2023-04-08T04:54:18;94059.69;;;2.38;100.00
52105;BME280;38103;42.776;23.112;2023-04-08T04:56:44;94047.38;;;2.17;100.00
52105;BME280;38103;42.776;23.112;2023-04-08T04:59:11;93979.13;;;1.83;100.00
52105;BME280;38103;42.776;23.112;2023-04-08T05:01:37;94046.56;;;2.31;100.00
52105;BME280;38103;42.776;23.112;2023-04-08T05:04:05;93905.50;;;1.50;100.00
52105;BME280;38103;42.776;23.112;2023-04-08T05:08:56;94078.84;;;2.61;100.00
52105;BME280;38103;42.776;23.112;2023-04-08T05:11:21;94067.50;;;2.53;100.00
52105;BME280;38103;42.776;23.112;2023-04-08T05:13:47;94082.91;;;2.63;100.00
52105;BME280;38103;42.776;23.112;2023-04-08T05:16:12;94073.09;;;2.81;100.00
52105;BME280;38103;42.776;23.112;2023-04-08T05:18:38;94071.97;;;2.90;100.00
52105;BME280;38103;42.776;23.112;2023-04-08T05:21:04;94071.00;;;2.91;100.00
52105;BME280;38103;42.776;23.112;2023-04-08T05:23:29;94070.34;;;2.89;100.00
52105;BME280;38103;42.776;23.112;2023-04-08T05:25:55;94069.97;;;2.92;100.00
52105;BME280;38103;42.776;23.112;2023-04-08T05:28:21;94068.63;;;2.96;100.00
52105;BME280;38103;42.776;23.112;2023-04-08T05:30:50;94037.75;;;2.85;98.50
52105;BME280;38103;42.776;23.112;2023-04-08T05:33:17;94070.13;;;3.06;94.36
52105;BME280;38103;42.776;23.112;2023-04-08T05:35:43;94007.53;;;2.75;92.27
52105;BME280;38103;42.776;23.112;2023-04-08T05:38:08;93968.84;;;2.64;93.26
52105;BME280;38103;42.776;23.112;2023-04-08T05:40:34;94067.84;;;3.18;92.05
52105;BME280;38103;42.776;23.112;2023-04-08T05:43:12;94068.28;;;3.21;93.25
52105;BME280;38103;42.776;23.112;2023-04-08T05:45:37;94083.59;;;3.24;92.45
52105;BME280;38103;42.776;23.112;2023-04-08T05:48:06;94071.00;;;3.13;93.13
52105;BME280;38103;42.776;23.112;2023-04-08T05:50:34;93982.66;;;2.58;93.55
52105;BME280;38103;42.776;23.112;2023-04-08T05:53:03;94082.56;;;3.04;93.03
52105;BME280;38103;42.776;23.112;2023-04-08T05:55:28;94080.06;;;2.95;93.93
52105;BME280;38103;42.776;23.112;2023-04-08T05:58:06;93910.03;;;2.09;93.40
52105;BME280;38103;42.776;23.112;2023-04-08T06:00:32;93913.75;;;1.84;93.69
52105;BME280;38103;42.776;23.112;2023-04-08T06:02:58;94070.56;;;2.72;94.83
52105;BME280;38103;42.776;23.112;2023-04-08T06:05:23;94077.31;;;2.66;95.86
52105;BME280;38103;42.776;23.112;2023-04-08T06:07:49;94084.25;;;2.74;96.50
52105;BME280;38103;42.776;23.112;2023-04-08T06:10:15;93903.16;;;1.71;94.91
52105;BME280;38103;42.776;23.112;2023-04-08T06:12:40;93904.03;;;1.78;96.27
52105;BME280;38103;42.776;23.112;2023-04-08T06:15:07;94064.03;;;2.98;95.67
52105;BME280;38103;42.776;23.112;2023-04-08T06:17:35;94062.41;;;2.97;94.98
52105;BME280;38103;42.776;23.112;2023-04-08T06:20:01;94082.34;;;3.20;94.59
52105;BME280;38103;42.776;23.112;2023-04-08T06:22:27;93909.69;;;2.12;93.64
52105;BME280;38103;42.776;23.112;2023-04-08T06:24:53;93904.94;;;2.38;95.16
52105;BME280;38103;42.776;23.112;2023-04-08T06:27:19;94061.56;;;3.34;90.78
52105;BME280;38103;42.776;23.112;2023-04-08T06:29:45;93912.56;;;2.54;90.57
52105;BME280;38103;42.776;23.112;2023-04-08T06:32:12;93917.91;;;2.68;86.95
52105;BME280;38103;42.776;23.112;2023-04-08T06:34:37;94071.91;;;3.64;84.68
52105;BME280;38103;42.776;23.112;2023-04-08T06:37:03;93921.63;;;2.81;85.80
52105;BME280;38103;42.776;23.112;2023-04-08T06:39:30;93917.00;;;2.61;85.61
52105;BME280;38103;42.776;23.112;2023-04-08T06:41:56;93943.75;;;2.85;86.49
52105;BME280;38103;42.776;23.112;2023-04-08T06:44:23;94045.38;;;3.67;87.73
52105;BME280;38103;42.776;23.112;2023-04-08T06:46:49;94079.13;;;3.62;86.90
52105;BME280;38103;42.776;23.112;2023-04-08T06:49:15;94049.63;;;3.46;86.66
52105;BME280;38103;42.776;23.112;2023-04-08T06:51:41;94083.34;;;3.41;87.10
52105;BME280;38103;42.776;23.112;2023-04-08T06:54:06;94076.22;;;3.50;89.46
52105;BME280;38103;42.776;23.112;2023-04-08T06:56:34;93927.03;;;2.57;87.88
52105;BME280;38103;42.776;23.112;2023-04-08T06:58:59;94084.47;;;3.76;86.86
52105;BME280;38103;42.776;23.112;2023-04-08T07:01:25;94083.91;;;3.80;87.02
52105;BME280;38103;42.776;23.112;2023-04-08T07:03:51;94090.97;;;3.87;86.66
52105;BME280;38103;42.776;23.112;2023-04-08T07:06:16;93933.25;;;2.78;86.23
52105;BME280;38103;42.776;23.112;2023-04-08T07:08:42;93927.38;;;2.91;87.97
52105;BME280;38103;42.776;23.112;2023-04-08T07:11:07;94090.03;;;3.95;85.08
52105;BME280;38103;42.776;23.112;2023-04-08T07:13:33;94089.53;;;4.06;84.60
52105;BME280;38103;42.776;23.112;2023-04-08T07:15:59;93941.50;;;3.26;85.35
52105;BME280;38103;42.776;23.112;2023-04-08T07:18:24;94101.41;;;4.38;84.55
52105;BME280;38103;42.776;23.112;2023-04-08T07:20:51;93943.44;;;3.45;84.59
52105;BME280;38103;42.776;23.112;2023-04-08T07:23:20;94069.84;;;4.46;84.64
52105;BME280;38103;42.776;23.112;2023-04-08T07:25:46;94091.78;;;4.45;83.99
52105;BME280;38103;42.776;23.112;2023-04-08T07:28:12;94052.22;;;4.26;86.14
52105;BME280;38103;42.776;23.112;2023-04-08T07:30:38;94099.97;;;4.64;85.41
52105;BME280;38103;42.776;23.112;2023-04-08T07:33:03;94114.44;;;4.60;86.21
52105;BME280;38103;42.776;23.112;2023-04-08T07:35:29;94089.31;;;4.72;86.27
52105;BME280;38103;42.776;23.112;2023-04-08T07:37:56;94081.69;;;4.77;86.62
52105;BME280;38103;42.776;23.112;2023-04-08T07:40:22;94114.22;;;5.03;84.45
52105;BME280;38103;42.776;23.112;2023-04-08T07:42:48;94110.56;;;4.98;85.45
52105;BME280;38103;42.776;23.112;2023-04-08T07:45:14;94068.97;;;4.74;83.46
52105;BME280;38103;42.776;23.112;2023-04-08T07:48:07;94106.06;;;5.27;83.77
52105;BME280;38103;42.776;23.112;2023-04-08T07:50:49;94118.78;;;5.37;81.35
52105;BME280;38103;42.776;23.112;2023-04-08T07:53:15;94108.28;;;5.37;82.47
52105;BME280;38103;42.776;23.112;2023-04-08T07:56:09;94116.38;;;5.42;81.08
52105;BME280;38103;42.776;23.112;2023-04-08T07:58:50;94118.44;;;5.67;81.83
52105;BME280;38103;42.776;23.112;2023-04-08T08:01:36;94123.69;;;5.67;80.33
52105;BME280;38103;42.776;23.112;2023-04-08T08:04:06;93976.28;;;4.75;79.63
52105;BME280;38103;42.776;23.112;2023-04-08T08:06:33;94139.63;;;5.73;80.43
52105;BME280;38103;42.776;23.112;2023-04-08T08:09:15;94058.81;;;5.13;80.01
52105;BME280;38103;42.776;23.112;2023-04-08T08:12:01;94138.81;;;5.65;79.77
52105;BME280;38103;42.776;23.112;2023-04-08T08:14:42;94129.94;;;5.73;81.59
52105;BME280;38103;42.776;23.112;2023-04-08T08:17:07;94134.41;;;5.86;82.14
52105;BME280;38103;42.776;23.112;2023-04-08T08:19:33;94119.31;;;6.22;77.65
52105;BME280;38103;42.776;23.112;2023-04-08T08:21:59;94108.56;;;6.58;77.86
52105;BME280;38103;42.776;23.112;2023-04-08T08:24:24;94121.88;;;6.70;77.93
52105;BME280;38103;42.776;23.112;2023-04-08T08:26:50;94087.59;;;6.37;75.62
52105;BME280;38103;42.776;23.112;2023-04-08T08:29:16;94112.56;;;6.74;75.90
52105;BME280;38103;42.776;23.112;2023-04-08T08:31:41;94111.09;;;6.92;76.38
52105;BME280;38103;42.776;23.112;2023-04-08T08:34:07;94118.69;;;7.14;75.29
52105;BME280;38103;42.776;23.112;2023-04-08T08:36:32;94115.34;;;6.93;73.22
52105;BME280;38103;42.776;23.112;2023-04-08T08:38:58;94118.81;;;6.73;74.66
52105;BME280;38103;42.776;23.112;2023-04-08T08:41:24;94114.34;;;6.80;74.49
52105;BME280;38103;42.776;23.112;2023-04-08T08:43:50;94034.50;;;6.22;74.56
52105;BME280;38103;42.776;23.112;2023-04-08T08:46:16;94050.22;;;6.35;73.17
52105;BME280;38103;42.776;23.112;2023-04-08T08:48:43;94127.66;;;6.99;72.77
52105;BME280;38103;42.776;23.112;2023-04-08T08:51:10;94124.84;;;6.94;73.89
52105;BME280;38103;42.776;23.112;2023-04-08T08:53:37;94133.69;;;7.07;74.31
52105;BME280;38103;42.776;23.112;2023-04-08T08:56:03;93982.56;;;6.24;72.01
52105;BME280;38103;42.776;23.112;2023-04-08T08:58:29;93980.75;;;6.31;74.12
52105;BME280;38103;42.776;23.112;2023-04-08T09:00:55;94011.00;;;6.54;73.35
52105;BME280;38103;42.776;23.112;2023-04-08T09:03:25;94076.81;;;7.19;73.16
52105;BME280;38103;42.776;23.112;2023-04-08T09:06:00;93979.66;;;6.53;72.16
52105;BME280;38103;42.776;23.112;2023-04-08T09:08:34;94057.97;;;7.22;71.95
52105;BME280;38103;42.776;23.112;2023-04-08T09:13:37;94121.22;;;7.74;70.34
52105;BME280;38103;42.776;23.112;2023-04-08T09:16:05;94080.56;;;7.69;70.06
52105;BME280;38103;42.776;23.112;2023-04-08T09:18:33;93990.56;;;7.02;68.77
52105;BME280;38103;42.776;23.112;2023-04-08T09:20:59;93987.81;;;6.84;71.28
52105;BME280;38103;42.776;23.112;2023-04-08T09:23:48;93981.72;;;6.90;71.76
52105;BME280;38103;42.776;23.112;2023-04-08T09:26:19;93985.34;;;6.89;72.45
52105;BME280;38103;42.776;23.112;2023-04-08T09:29:08;94076.31;;;7.36;71.47
52105;BME280;38103;42.776;23.112;2023-04-08T09:31:37;94112.88;;;7.51;72.61
52105;BME280;38103;42.776;23.112;2023-04-08T09:34:13;94089.41;;;7.49;71.25
52105;BME280;38103;42.776;23.112;2023-04-08T09:36:41;93993.75;;;6.72;74.04
52105;BME280;38103;42.776;23.112;2023-04-08T09:39:06;94117.59;;;7.75;73.12
52105;BME280;38103;42.776;23.112;2023-04-08T09:41:37;93978.00;;;7.04;71.42
52105;BME280;38103;42.776;23.112;2023-04-08T09:44:08;93953.66;;;7.16;72.94
52105;BME280;38103;42.776;23.112;2023-04-08T10:01:01;94088.50;;;9.53;68.20
52105;BME280;38103;42.776;23.112;2023-04-08T10:03:31;94085.59;;;9.73;68.43
52105;BME280;38103;42.776;23.112;2023-04-08T10:06:01;94096.38;;;9.71;64.42
52105;BME280;38103;42.776;23.112;2023-04-08T10:08:27;94085.91;;;9.77;64.97
52105;BME280;38103;42.776;23.112;2023-04-08T10:10:54;94084.25;;;9.52;62.63
52105;BME280;38103;42.776;23.112;2023-04-08T10:13:20;94058.06;;;9.38;65.60
52105;BME280;38103;42.776;23.112;2023-04-08T10:15:46;94048.59;;;8.99;65.09
52105;BME280;38103;42.776;23.112;2023-04-08T10:23:09;94076.81;;;8.99;70.20
52105;BME280;38103;42.776;23.112;2023-04-08T10:25:47;94073.06;;;9.07;65.38
52105;BME280;38103;42.776;23.112;2023-04-08T10:33:13;94068.94;;;9.11;64.43
52105;BME280;38103;42.776;23.112;2023-04-08T10:35:42;93971.72;;;8.08;67.13
52105;BME280;38103;42.776;23.112;2023-04-08T10:38:11;94056.44;;;8.87;67.79
52105;BME280;38103;42.776;23.112;2023-04-08T10:40:38;94046.03;;;8.92;68.32
52105;BME280;38103;42.776;23.112;2023-04-08T10:43:06;94041.84;;;9.03;68.94
52105;BME280;38103;42.776;23.112;2023-04-08T10:45:32;94054.03;;;9.04;65.92
52105;BME280;38103;42.776;23.112;2023-04-08T10:48:30;94038.63;;;9.01;63.82
52105;BME280;38103;42.776;23.112;2023-04-08T10:51:02;94035.13;;;8.89;67.71
52105;BME280;38103;42.776;23.112;2023-04-08T10:53:29;94033.13;;;9.03;66.50
52105;BME280;38103;42.776;23.112;2023-04-08T10:56:12;94025.66;;;9.00;64.67
52105;BME280;38103;42.776;23.112;2023-04-08T10:58:49;94023.50;;;8.78;66.03
52105;BME280;38103;42.776;23.112;2023-04-08T11:01:14;93990.47;;;8.94;66.03
52105;BME280;38103;42.776;23.112;2023-04-08T11:03:41;94029.06;;;9.19;62.87
52105;BME280;38103;42.776;23.112;2023-04-08T11:06:07;94016.47;;;9.21;64.75
52105;BME280;38103;42.776;23.112;2023-04-08T11:08:33;94003.50;;;9.20;60.71
52105;BME280;38103;42.776;23.112;2023-04-08T11:11:00;94010.47;;;9.57;61.54
52105;BME280;38103;42.776;23.112;2023-04-08T11:13:30;94012.47;;;9.74;60.22
52105;BME280;38103;42.776;23.112;2023-04-08T11:15:57;94002.47;;;9.64;60.45
52105;BME280;38103;42.776;23.112;2023-04-08T11:18:23;94004.78;;;9.96;61.38
52105;BME280;38103;42.776;23.112;2023-04-08T11:20:50;94010.75;;;10.03;58.37
52105;BME280;38103;42.776;23.112;2023-04-08T11:23:16;93971.00;;;9.74;60.87
52105;BME280;38103;42.776;23.112;2023-04-08T11:25:42;94002.59;;;9.93;60.26
52105;BME280;38103;42.776;23.112;2023-04-08T11:28:09;94001.56;;;9.82;61.03
52105;BME280;38103;42.776;23.112;2023-04-08T11:30:35;94002.94;;;9.72;61.37
52105;BME280;38103;42.776;23.112;2023-04-08T11:33:01;93994.88;;;9.79;60.15
52105;BME280;38103;42.776;23.112;2023-04-08T11:35:29;93996.38;;;9.75;59.53
52105;BME280;38103;42.776;23.112;2023-04-08T11:37:57;93990.78;;;9.71;60.76
52105;BME280;38103;42.776;23.112;2023-04-08T11:40:23;93993.94;;;9.61;59.22
52105;BME280;38103;42.776;23.112;2023-04-08T11:42:51;94001.16;;;9.42;62.25
52105;BME280;38103;42.776;23.112;2023-04-08T11:45:18;93997.47;;;9.43;61.90
52105;BME280;38103;42.776;23.112;2023-04-08T11:47:45;93993.13;;;9.37;61.36
52105;BME280;38103;42.776;23.112;2023-04-08T11:50:11;94009.38;;;9.34;61.31
52105;BME280;38103;42.776;23.112;2023-04-08T11:55:20;94007.69;;;9.09;61.74
52105;BME280;38103;42.776;23.112;2023-04-08T11:57:46;94013.84;;;9.02;63.98
52105;BME280;38103;42.776;23.112;2023-04-08T12:00:12;94012.13;;;8.96;63.06
52105;BME280;38103;42.776;23.112;2023-04-08T12:02:38;94024.88;;;8.99;65.55
52105;BME280;38103;42.776;23.112;2023-04-08T12:05:04;94009.84;;;9.00;64.66
52105;BME280;38103;42.776;23.112;2023-04-08T12:07:31;94005.72;;;9.35;65.78
52105;BME280;38103;42.776;23.112;2023-04-08T12:09:56;94011.59;;;9.49;73.41
52105;BME280;38103;42.776;23.112;2023-04-08T12:12:22;94006.81;;;9.58;73.68
52105;BME280;38103;42.776;23.112;2023-04-08T12:14:47;94014.28;;;9.61;73.63
52105;BME280;38103;42.776;23.112;2023-04-08T12:17:13;94012.91;;;9.70;73.63
52105;BME280;38103;42.776;23.112;2023-04-08T12:19:38;94010.16;;;9.65;74.60
52105;BME280;38103;42.776;23.112;2023-04-08T12:22:03;94006.72;;;9.77;75.84
52105;BME280;38103;42.776;23.112;2023-04-08T12:24:29;94005.59;;;9.97;75.75
52105;BME280;38103;42.776;23.112;2023-04-08T12:26:54;94001.91;;;9.98;76.27
52105;BME280;38103;42.776;23.112;2023-04-08T12:29:20;93988.34;;;9.82;83.68
52105;BME280;38103;42.776;23.112;2023-04-08T12:31:46;94002.38;;;9.94;83.77
52105;BME280;38103;42.776;23.112;2023-04-08T12:34:11;94003.53;;;9.99;81.98
52105;BME280;38103;42.776;23.112;2023-04-08T12:36:37;94003.06;;;10.02;82.03
52105;BME280;38103;42.776;23.112;2023-04-08T12:39:02;93997.78;;;10.02;79.80
52105;BME280;38103;42.776;23.112;2023-04-08T12:41:28;93992.97;;;9.99;80.36
52105;BME280;38103;42.776;23.112;2023-04-08T12:43:53;93996.16;;;10.13;77.99
52105;BME280;38103;42.776;23.112;2023-04-08T12:46:19;93987.69;;;10.23;77.14
52105;BME280;38103;42.776;23.112;2023-04-08T12:48:44;93984.41;;;10.45;80.59
52105;BME280;38103;42.776;23.112;2023-04-08T12:51:10;93985.94;;;10.53;77.79
52105;BME280;38103;42.776;23.112;2023-04-08T12:53:36;93988.53;;;10.77;75.88
52105;BME280;38103;42.776;23.112;2023-04-08T12:56:01;93976.28;;;10.88;72.80
52105;BME280;38103;42.776;23.112;2023-04-08T12:58:26;93985.00;;;11.00;70.34
52105;BME280;38103;42.776;23.112;2023-04-08T13:00:52;93977.91;;;10.89;67.96
52105;BME280;38103;42.776;23.112;2023-04-08T13:03:17;93988.00;;;10.92;69.45
52105;BME280;38103;42.776;23.112;2023-04-08T13:05:43;93985.81;;;10.35;68.54
52105;BME280;38103;42.776;23.112;2023-04-08T13:08:09;93911.22;;;9.80;70.52
52105;BME280;38103;42.776;23.112;2023-04-08T13:10:36;93987.75;;;10.40;74.61
52105;BME280;38103;42.776;23.112;2023-04-08T13:13:01;93814.72;;;9.24;73.70
52105;BME280;38103;42.776;23.112;2023-04-08T13:15:26;93972.75;;;10.16;72.58
52105;BME280;38103;42.776;23.112;2023-04-08T13:17:52;93977.34;;;10.09;73.58
52105;BME280;38103;42.776;23.112;2023-04-08T13:20:18;93965.63;;;9.81;73.81
52105;BME280;38103;42.776;23.112;2023-04-08T13:22:43;93979.63;;;9.93;75.67
52105;BME280;38103;42.776;23.112;2023-04-08T13:25:09;93933.72;;;9.70;74.65
52105;BME280;38103;42.776;23.112;2023-04-08T13:27:34;93988.13;;;9.95;73.35
52105;BME280;38103;42.776;23.112;2023-04-08T13:30:00;93974.81;;;9.90;73.83
52105;BME280;38103;42.776;23.112;2023-04-08T13:32:25;93978.59;;;9.82;74.17
52105;BME280;38103;42.776;23.112;2023-04-08T13:34:51;93970.09;;;9.68;73.69
52105;BME280;38103;42.776;23.112;2023-04-08T13:37:16;93976.28;;;9.50;72.39
52105;BME280;38103;42.776;23.112;2023-04-08T13:39:41;93968.94;;;9.52;73.96